Time;durP1;ratioP1;P1;durP2;ratioP2;P2;SDS_P1;SDS_P2;PMS_P1;PMS_P2;Temp;Humidity;BMP_temperature;BMP_pressure;BME280_temperature;BME280_humidity;BME280_pressure;Samples;Min_cycle;Max_cycle;Signal;HPM_P1;HPM_P2
2022/06/12 00:01:19;;;;;;;5.00;4.50;;;18.80;99.90;;;;;;5015206;28;20460;-72
2022/06/12 00:03:46;;;;;;;4.60;4.20;;;18.80;99.90;;;;;;5015470;28;20413;-72
2022/06/12 00:06:13;;;;;;;4.50;4.00;;;18.70;99.90;;;;;;5014882;28;20401;-72
2022/06/12 00:08:39;;;;;;;5.17;4.67;;;18.70;99.90;;;;;;5014836;28;20430;-72
2022/06/12 00:11:08;;;;;;;4.90;4.60;;;18.70;99.90;;;;;;5014738;28;20405;-72
2022/06/12 00:13:39;;;;;;;4.50;4.10;;;18.70;99.90;;;;;;5014450;28;20532;-72
2022/06/12 00:16:07;;;;;;;4.17;3.83;;;18.60;99.90;;;;;;5014373;28;20400;-72
2022/06/12 00:18:33;;;;;;;4.23;3.83;;;18.60;99.90;;;;;;5014459;28;20433;-72
2022/06/12 00:21:11;;;;;;;5.30;4.80;;;18.60;99.90;;;;;;5014275;28;20473;-72
2022/06/12 00:24:01;;;;;;;4.37;3.97;;;18.60;99.90;;;;;;5013251;28;20175;-71
2022/06/12 00:26:36;;;;;;;5.13;4.30;;;18.50;99.90;;;;;;5014028;28;20437;-74
2022/06/12 00:29:09;;;;;;;4.83;4.17;;;18.50;99.90;;;;;;5014557;28;20491;-73
2022/06/12 00:31:38;;;;;;;4.70;4.30;;;18.40;99.90;;;;;;5014083;28;20406;-71
2022/06/12 00:34:04;;;;;;;4.60;4.20;;;18.40;99.90;;;;;;5014270;28;20411;-72
2022/06/12 00:36:31;;;;;;;4.13;3.83;;;18.40;99.90;;;;;;5014071;28;20417;-73
2022/06/12 00:38:57;;;;;;;4.83;4.33;;;18.30;99.90;;;;;;5014002;28;20545;-73
2022/06/12 00:41:23;;;;;;;5.00;4.57;;;18.30;99.90;;;;;;5014590;28;20490;-73
2022/06/12 00:43:49;;;;;;;5.37;4.67;;;18.30;99.90;;;;;;5014024;28;20409;-72
2022/06/12 00:46:55;;;;;;;4.80;4.30;;;18.30;99.90;;;;;;5014063;28;20409;-72
2022/06/12 00:49:24;;;;;;;7.03;5.10;;;18.30;99.90;;;;;;4953003;28;20226;-72
2022/06/12 00:51:56;;;;;;;6.27;4.67;;;18.30;99.90;;;;;;4953303;29;20416;-73
2022/06/12 00:54:24;;;;;;;4.53;4.23;;;18.20;99.90;;;;;;4986219;28;20451;-72
2022/06/12 00:56:53;;;;;;;5.80;5.30;;;18.20;99.90;;;;;;5013668;28;20417;-72
2022/06/12 00:59:32;;;;;;;5.30;4.87;;;18.20;99.90;;;;;;5013631;28;20532;-73
2022/06/12 01:01:58;;;;;;;5.03;4.63;;;18.10;99.90;;;;;;5013679;28;20413;-73
2022/06/12 01:07:13;;;;;;;4.83;4.43;;;18.00;99.90;;;;;;5013780;28;20829;-72
2022/06/12 01:09:42;;;;;;;5.20;4.70;;;18.00;99.90;;;;;;5010961;28;20533;-72
2022/06/12 01:12:13;;;;;;;5.37;4.83;;;17.90;99.90;;;;;;5007518;28;20950;-72
2022/06/12 01:14:57;;;;;;;5.67;5.10;;;17.90;99.90;;;;;;5012759;28;20420;-72
2022/06/12 01:17:24;;;;;;;5.27;4.83;;;17.90;99.90;;;;;;5013035;28;20473;-72
2022/06/12 01:19:57;;;;;;;5.30;4.80;;;17.80;99.90;;;;;;5013477;28;20812;-72
2022/06/12 01:22:22;;;;;;;5.83;5.27;;;17.90;99.90;;;;;;5013402;28;20951;-72
2022/06/12 01:25:39;;;;;;;6.77;5.50;;;17.90;99.90;;;;;;5013299;28;20418;-72
2022/06/12 01:28:39;;;;;;;6.10;5.60;;;17.90;99.90;;;;;;4979726;28;20654;-72
2022/06/12 01:31:13;;;;;;;4.83;4.47;;;17.90;99.90;;;;;;5013559;28;20405;-72
2022/06/12 01:34:03;;;;;;;5.87;4.40;;;17.90;99.90;;;;;;5013367;28;20404;-71
2022/06/12 01:36:54;;;;;;;5.40;4.97;;;17.90;99.90;;;;;;5013194;28;20900;-71
2022/06/12 01:39:27;;;;;;;5.40;4.90;;;17.90;99.90;;;;;;5012372;28;20880;-71
2022/06/12 01:42:15;;;;;;;5.20;4.73;;;17.90;99.90;;;;;;5012071;28;20404;-72
2022/06/12 01:45:33;;;;;;;5.30;4.80;;;17.90;99.90;;;;;;5012977;28;20411;-72
2022/06/12 01:48:20;;;;;;;5.43;4.93;;;17.80;99.90;;;;;;4963984;28;20436;-72
2022/06/12 01:50:57;;;;;;;5.43;4.93;;;17.80;99.90;;;;;;5013408;28;20442;-70
2022/06/12 01:53:40;;;;;;;4.97;4.57;;;17.80;99.90;;;;;;5013153;28;20516;-72
2022/06/12 01:56:24;;;;;;;6.43;5.00;;;17.80;99.90;;;;;;5013131;28;21002;-72
2022/06/12 01:59:02;;;;;;;5.10;4.60;;;17.80;99.90;;;;;;5012949;28;20445;-71
2022/06/12 02:01:27;;;;;;;6.07;5.53;;;17.80;99.90;;;;;;5012785;28;20407;-71
2022/06/12 02:04:06;;;;;;;5.43;4.77;;;17.80;99.90;;;;;;5013056;28;20506;-71
2022/06/12 02:06:39;;;;;;;6.07;5.37;;;17.80;99.90;;;;;;5012599;28;20169;-71
2022/06/12 02:09:21;;;;;;;4.90;4.40;;;17.80;99.90;;;;;;5012882;28;20987;-71
2022/06/12 02:15:08;;;;;;;9.40;5.43;;;17.80;99.90;;;;;;5012585;28;20830;-71
2022/06/12 02:17:59;;;;;;;6.90;6.20;;;17.80;99.90;;;;;;5005990;28;20421;-71
2022/06/12 02:20:34;;;;;;;8.43;5.67;;;17.80;99.90;;;;;;5012169;28;20524;-71
2022/06/12 02:23:04;;;;;;;4.87;4.40;;;17.80;99.90;;;;;;5012571;28;20500;-71
2022/06/12 02:25:35;;;;;;;5.63;5.13;;;17.80;99.90;;;;;;5012300;28;20471;-72
2022/06/12 02:28:13;;;;;;;5.73;5.20;;;17.90;99.90;;;;;;5012519;28;20528;-70
2022/06/12 02:30:42;;;;;;;5.97;5.47;;;17.90;99.90;;;;;;5012435;28;20763;-72
2022/06/12 02:33:17;;;;;;;6.77;5.80;;;17.90;99.90;;;;;;5012461;28;20493;-73
2022/06/12 02:36:00;;;;;;;5.40;4.90;;;18.00;99.90;;;;;;5012185;28;20475;-71
2022/06/12 02:38:33;;;;;;;6.23;5.20;;;18.00;99.90;;;;;;5012338;28;20512;-71
2022/06/12 02:41:05;;;;;;;9.47;5.10;;;18.00;99.90;;;;;;5012354;28;20409;-71
2022/06/12 02:43:33;;;;;;;6.63;5.43;;;18.00;99.90;;;;;;5012128;28;20397;-71
2022/06/12 02:46:11;;;;;;;5.50;5.00;;;18.00;99.90;;;;;;5011794;28;20402;-71
2022/06/12 02:48:37;;;;;;;6.93;5.73;;;18.10;99.90;;;;;;5011597;28;20426;-71
2022/06/12 02:51:15;;;;;;;6.93;5.33;;;18.10;99.90;;;;;;5011568;28;20402;-71
2022/06/12 02:54:06;;;;;;;5.50;5.00;;;18.10;99.90;;;;;;5012030;28;20165;-72
2022/06/12 02:56:55;;;;;;;6.47;4.90;;;18.10;99.90;;;;;;5011613;28;20430;-71
2022/06/12 02:59:55;;;;;;;13.47;5.93;;;18.10;99.90;;;;;;5011883;28;20475;-71
2022/06/12 03:02:20;;;;;;;5.63;5.10;;;18.20;99.90;;;;;;5011959;28;20406;-71
2022/06/12 03:05:15;;;;;;;4.87;4.47;;;18.20;99.90;;;;;;5011618;28;20408;-71
2022/06/12 03:07:41;;;;;;;7.77;4.60;;;18.10;99.90;;;;;;5010623;28;20241;-72
2022/06/12 03:10:11;;;;;;;6.07;4.70;;;18.10;99.90;;;;;;5011791;28;20404;-71
2022/06/12 03:12:37;;;;;;;5.80;4.93;;;18.20;99.90;;;;;;5011487;28;20206;-72
2022/06/12 03:15:08;;;;;;;4.93;4.53;;;18.10;99.90;;;;;;5011437;28;20931;-72
2022/06/12 03:17:34;;;;;;;6.03;5.37;;;18.10;99.90;;;;;;5011453;28;20171;-72
2022/06/12 03:20:00;;;;;;;6.03;4.70;;;18.10;99.90;;;;;;5011462;28;20467;-72
2022/06/12 03:22:50;;;;;;;4.77;4.30;;;18.10;99.90;;;;;;5011781;28;20167;-72
2022/06/12 03:25:43;;;;;;;5.30;4.90;;;18.10;99.90;;;;;;5011272;28;20990;-72
2022/06/12 03:28:22;;;;;;;7.53;6.60;;;18.10;99.90;;;;;;5010952;28;20437;-71
2022/06/12 03:30:59;;;;;;;5.20;4.70;;;18.10;99.90;;;;;;5011352;28;20424;-71
2022/06/12 03:33:42;;;;;;;5.53;5.03;;;18.10;99.90;;;;;;5011444;28;20494;-71
2022/06/12 03:36:16;;;;;;;6.67;4.90;;;18.10;99.90;;;;;;5011007;28;20836;-71
2022/06/12 03:39:05;;;;;;;4.77;4.37;;;18.20;99.90;;;;;;5011431;28;20483;-71
2022/06/12 03:41:40;;;;;;;5.63;5.13;;;18.30;99.90;;;;;;5010971;28;20437;-72
2022/06/12 03:44:23;;;;;;;4.87;4.47;;;18.30;99.90;;;;;;5011435;28;20420;-71
2022/06/12 03:47:13;;;;;;;5.43;4.57;;;18.30;99.90;;;;;;5011263;28;20429;-71
2022/06/12 03:49:59;;;;;;;6.20;4.50;;;18.30;99.90;;;;;;5011219;28;20426;-71
2022/06/12 03:52:40;;;;;;;4.83;4.33;;;18.30;99.90;;;;;;5011196;28;20770;-71
2022/06/12 03:58:20;;;;;;;5.30;4.80;;;18.20;99.90;;;;;;5011192;28;20425;-71
2022/06/12 04:00:48;;;;;;;5.80;5.17;;;18.10;99.90;;;;;;5012041;28;20457;-72
2022/06/12 04:03:36;;;;;;;5.60;4.73;;;18.20;99.90;;;;;;5014781;28;20900;-72
2022/06/12 04:06:08;;;;;;;5.90;5.30;;;18.10;99.90;;;;;;5014637;28;20467;-72
2022/06/12 04:08:43;;;;;;;6.70;6.00;;;18.00;99.90;;;;;;5014560;28;20425;-72
2022/06/12 04:11:12;;;;;;;7.13;6.40;;;17.90;99.90;;;;;;5014699;28;20724;-72
2022/06/12 04:13:39;;;;;;;7.17;6.47;;;17.70;99.90;;;;;;5014319;28;20404;-72
2022/06/12 04:16:26;;;;;;;7.17;6.13;;;17.50;99.90;;;;;;5014300;28;20467;-72
2022/06/12 04:18:53;;;;;;;9.30;6.43;;;17.50;99.90;;;;;;5014365;28;20439;-72
2022/06/12 04:21:43;;;;;;;8.33;6.73;;;17.50;99.90;;;;;;5014404;28;20405;-72
2022/06/12 04:24:16;;;;;;;6.77;5.90;;;17.50;99.90;;;;;;5014232;28;20960;-72
2022/06/12 04:26:57;;;;;;;8.17;6.70;;;17.60;99.90;;;;;;5013913;28;20934;-72
2022/06/12 04:29:31;;;;;;;7.43;6.73;;;17.70;99.90;;;;;;5014164;28;20456;-72
2022/06/12 04:32:00;;;;;;;6.60;6.10;;;17.90;99.90;;;;;;5014227;28;21068;-72
2022/06/12 04:34:28;;;;;;;7.23;5.80;;;18.60;99.90;;;;;;5013998;28;20406;-72
2022/06/12 04:37:01;;;;;;;6.10;5.30;;;19.30;99.90;;;;;;5014261;28;20423;-72
2022/06/12 04:39:33;;;;;;;5.10;4.70;;;19.20;99.90;;;;;;5013914;28;20495;-72
2022/06/12 04:42:00;;;;;;;6.67;5.30;;;19.10;99.90;;;;;;5013820;28;20429;-72
2022/06/12 04:44:26;;;;;;;6.90;6.23;;;19.10;99.90;;;;;;5014015;28;20401;-73
2022/06/12 04:46:54;;;;;;;5.70;5.23;;;18.80;99.90;;;;;;5013935;28;20938;-72
2022/06/12 04:49:24;;;;;;;6.10;4.73;;;18.90;99.90;;;;;;5014222;28;20914;-73
2022/06/12 04:51:52;;;;;;;6.90;6.23;;;18.80;99.90;;;;;;5013917;28;20502;-72
2022/06/12 04:54:19;;;;;;;6.03;5.53;;;18.50;99.90;;;;;;5013779;28;20480;-72
2022/06/12 04:56:45;;;;;;;7.63;5.90;;;18.50;99.90;;;;;;5013657;28;20947;-72
2022/06/12 04:59:13;;;;;;;8.93;6.17;;;18.50;99.90;;;;;;5013741;28;21011;-72
2022/06/12 05:01:39;;;;;;;9.20;6.50;;;18.30;99.90;;;;;;5013502;28;20418;-72
2022/06/12 05:04:05;;;;;;;7.27;6.10;;;18.10;99.90;;;;;;5013951;28;20983;-72
2022/06/12 05:06:31;;;;;;;10.83;6.33;;;18.00;99.90;;;;;;5013478;28;20425;-72
2022/06/12 05:08:57;;;;;;;7.20;6.20;;;17.90;99.90;;;;;;5013293;28;20438;-72
2022/06/12 05:11:23;;;;;;;6.30;5.70;;;18.00;99.90;;;;;;5013452;28;20406;-72
2022/06/12 05:13:49;;;;;;;8.83;6.80;;;18.10;99.90;;;;;;5012545;28;20254;-72
2022/06/12 05:16:40;;;;;;;9.37;8.47;;;18.10;99.90;;;;;;5013529;28;20509;-72
2022/06/12 05:19:10;;;;;;;9.00;7.80;;;18.10;99.90;;;;;;5002943;28;20453;-72
2022/06/12 05:21:36;;;;;;;12.60;8.43;;;18.10;99.90;;;;;;5013748;28;20410;-72
2022/06/12 05:24:03;;;;;;;9.27;8.27;;;18.20;99.90;;;;;;5013831;28;20494;-73
2022/06/12 05:26:33;;;;;;;9.00;8.10;;;18.20;99.90;;;;;;5013555;28;20433;-73
2022/06/12 05:29:00;;;;;;;8.10;7.30;;;18.30;99.90;;;;;;5014618;28;20972;-71
2022/06/12 05:31:26;;;;;;;7.43;6.73;;;18.30;99.90;;;;;;5014202;28;20418;-71
2022/06/12 05:33:53;;;;;;;8.33;7.53;;;18.20;99.90;;;;;;5014094;28;20407;-72
2022/06/12 05:36:20;;;;;;;8.73;7.30;;;18.20;99.90;;;;;;5013534;28;20179;-72
2022/06/12 05:38:46;;;;;;;8.63;7.67;;;18.30;99.90;;;;;;5013423;28;20430;-72
2022/06/12 05:41:13;;;;;;;9.20;8.30;;;18.40;99.90;;;;;;5013394;28;20403;-72
2022/06/12 05:43:40;;;;;;;8.83;7.93;;;18.40;99.90;;;;;;5013170;28;20186;-72
2022/06/12 05:46:08;;;;;;;7.87;6.67;;;18.50;99.90;;;;;;5013114;28;20818;-71
2022/06/12 05:48:33;;;;;;;11.33;8.03;;;18.50;99.90;;;;;;5013114;28;20430;-71
2022/06/12 05:51:00;;;;;;;6.80;6.20;;;18.60;99.90;;;;;;5013242;28;20439;-71
2022/06/12 05:53:28;;;;;;;7.43;6.80;;;18.60;99.90;;;;;;5013000;28;20160;-72
2022/06/12 05:55:56;;;;;;;6.30;5.80;;;18.60;99.90;;;;;;5012768;28;20416;-71
2022/06/12 05:58:24;;;;;;;6.77;6.23;;;18.80;99.90;;;;;;5012707;28;20463;-71
2022/06/12 06:00:50;;;;;;;9.30;5.50;;;18.70;99.90;;;;;;5013003;28;20479;-72
2022/06/12 06:03:16;;;;;;;6.80;6.13;;;18.90;99.90;;;;;;5012876;28;20412;-71
2022/06/12 06:05:45;;;;;;;8.80;6.33;;;18.90;99.90;;;;;;5012563;28;20968;-71
2022/06/12 06:08:11;;;;;;;6.63;5.90;;;19.10;99.90;;;;;;5012547;28;20192;-72
2022/06/12 06:10:37;;;;;;;8.30;6.30;;;19.20;99.90;;;;;;5012764;28;20412;-72
2022/06/12 06:13:03;;;;;;;6.53;5.93;;;19.40;99.90;;;;;;5012518;28;20415;-71
2022/06/12 06:15:28;;;;;;;7.10;6.40;;;19.50;99.90;;;;;;5012210;28;20462;-71
2022/06/12 06:17:54;;;;;;;6.83;6.00;;;19.50;99.90;;;;;;5012213;28;20718;-71
2022/06/12 06:20:24;;;;;;;7.30;6.40;;;19.80;99.90;;;;;;5012171;28;20197;-71
2022/06/12 06:22:50;;;;;;;6.90;6.23;;;19.60;99.90;;;;;;5011899;28;20430;-71
2022/06/12 06:25:16;;;;;;;9.63;7.00;;;19.30;99.90;;;;;;5011758;28;20417;-71
2022/06/12 06:27:42;;;;;;;6.17;5.53;;;19.40;99.90;;;;;;5011829;28;20835;-71
2022/06/12 06:30:08;;;;;;;6.73;6.03;;;19.40;99.90;;;;;;5011977;28;20773;-71
2022/06/12 06:32:34;;;;;;;5.30;4.70;;;19.40;99.90;;;;;;5011932;28;20303;-73
2022/06/12 06:35:00;;;;;;;7.33;5.37;;;19.50;99.90;;;;;;5010483;28;20902;-71
2022/06/12 06:37:26;;;;;;;6.27;5.77;;;19.70;99.90;;;;;;5011804;28;20573;-71
2022/06/12 06:39:52;;;;;;;5.87;5.10;;;20.30;99.90;;;;;;5011895;28;20454;-71
2022/06/12 06:42:17;;;;;;;7.83;6.10;;;20.30;99.90;;;;;;5011781;28;20165;-71
2022/06/12 06:47:28;;;;;;;5.23;4.73;;;20.20;99.90;;;;;;5013507;28;20404;-70
2022/06/12 06:49:53;;;;;;;6.10;5.60;;;20.50;99.90;;;;;;5012754;28;20417;-70
2022/06/12 06:52:20;;;;;;;5.20;4.80;;;20.70;99.90;;;;;;5012503;28;20182;-70
2022/06/12 06:54:45;;;;;;;5.40;4.97;;;21.10;99.90;;;;;;5013545;28;20506;-70
2022/06/12 06:57:12;;;;;;;4.83;4.40;;;21.20;99.90;;;;;;5013685;28;20443;-70
2022/06/12 06:59:38;;;;;;;5.90;5.00;;;21.00;99.90;;;;;;5013210;28;20694;-72
2022/06/12 07:02:04;;;;;;;5.57;5.10;;;21.20;99.90;;;;;;5011931;28;20520;-73
2022/06/12 07:04:30;;;;;;;5.37;4.97;;;21.40;99.90;;;;;;5013845;28;20414;-71
2022/06/12 07:06:56;;;;;;;5.50;4.73;;;21.50;99.90;;;;;;5014028;28;20412;-70
2022/06/12 07:09:21;;;;;;;6.17;5.57;;;21.30;99.90;;;;;;5012703;28;20193;-70
2022/06/12 07:11:47;;;;;;;5.77;5.27;;;20.90;99.90;;;;;;5012821;28;20169;-70
2022/06/12 07:14:13;;;;;;;6.37;5.70;;;20.80;99.90;;;;;;5013106;28;20173;-70
2022/06/12 07:16:40;;;;;;;5.10;4.60;;;20.90;99.90;;;;;;5011943;28;20256;-71
2022/06/12 07:19:06;;;;;;;6.83;5.17;;;20.80;99.90;;;;;;5012862;28;20202;-71
2022/06/12 07:21:32;;;;;;;5.33;4.93;;;20.80;99.90;;;;;;5012926;28;20404;-71
2022/06/12 07:23:58;;;;;;;5.67;4.87;;;20.70;99.90;;;;;;5013232;28;20442;-71
2022/06/12 07:26:30;;;;;;;5.53;4.27;;;20.70;99.90;;;;;;5011834;28;20437;-71
2022/06/12 07:28:56;;;;;;;5.97;5.37;;;20.70;99.90;;;;;;5013441;28;20486;-71
2022/06/12 07:31:23;;;;;;;7.83;5.97;;;20.80;99.90;;;;;;5012574;28;20411;-74
2022/06/12 07:33:49;;;;;;;7.57;5.00;;;20.80;99.90;;;;;;5011466;28;20421;-72
2022/06/12 07:36:17;;;;;;;5.43;4.90;;;20.80;99.90;;;;;;5013236;28;20413;-71
2022/06/12 07:38:46;;;;;;;4.97;4.30;;;20.70;99.90;;;;;;5014392;28;20422;-71
2022/06/12 07:41:14;;;;;;;5.17;4.77;;;20.70;99.90;;;;;;5014082;28;20470;-71
2022/06/12 07:43:40;;;;;;;5.30;4.83;;;20.90;99.90;;;;;;5015276;28;20416;-72
2022/06/12 07:46:09;;;;;;;4.63;4.23;;;21.20;99.90;;;;;;5015149;28;20433;-71
2022/06/12 07:48:36;;;;;;;4.20;3.80;;;21.10;99.90;;;;;;5015305;28;20464;-72
2022/06/12 07:51:04;;;;;;;5.40;4.90;;;21.10;99.90;;;;;;5015566;28;20410;-72
2022/06/12 07:53:30;;;;;;;4.10;3.80;;;21.70;99.90;;;;;;5015432;28;20837;-73
2022/06/12 07:55:57;;;;;;;4.00;3.60;;;22.70;99.90;;;;;;5014841;28;20441;-71
2022/06/12 07:58:24;;;;;;;5.07;3.37;;;22.60;99.90;;;;;;5014925;28;20433;-71
2022/06/12 08:00:52;;;;;;;2.80;2.60;;;22.40;99.90;;;;;;5014837;28;20449;-71
2022/06/12 08:03:18;;;;;;;4.80;3.83;;;22.30;99.90;;;;;;5013330;28;21012;-72
2022/06/12 08:05:43;;;;;;;2.23;2.03;;;22.30;99.90;;;;;;5014656;28;20407;-72
2022/06/12 08:08:09;;;;;;;3.37;3.10;;;22.30;99.90;;;;;;5014915;28;20965;-72
2022/06/12 08:10:35;;;;;;;2.63;2.43;;;22.20;99.90;;;;;;5014673;28;20171;-71
2022/06/12 08:13:06;;;;;;;4.23;3.00;;;22.20;99.90;;;;;;5014500;28;20183;-72
2022/06/12 08:15:34;;;;;;;3.77;3.47;;;22.10;99.90;;;;;;5014946;28;20614;-72
2022/06/12 08:17:59;;;;;;;2.40;2.20;;;22.30;99.90;;;;;;5014720;28;20519;-72
2022/06/12 08:20:28;;;;;;;3.57;1.97;;;22.40;99.90;;;;;;5014748;28;20517;-71
2022/06/12 08:23:26;;;;;;;2.70;2.50;;;22.80;99.90;;;;;;5014558;28;20186;-71
2022/06/12 08:25:54;;;;;;;2.73;2.40;;;22.90;99.90;;;;;;5014411;28;20430;-71
2022/06/12 08:28:20;;;;;;;2.20;2.10;;;23.20;99.90;;;;;;5014251;28;20474;-71
2022/06/12 08:30:46;;;;;;;3.53;3.23;;;23.10;99.90;;;;;;5014649;28;20489;-71
2022/06/12 08:33:11;;;;;;;1.90;1.80;;;23.40;99.90;;;;;;5014088;28;20240;-70
2022/06/12 08:35:37;;;;;;;2.30;2.10;;;23.00;99.90;;;;;;5014093;28;20179;-71
2022/06/12 08:38:03;;;;;;;1.60;1.50;;;23.60;99.90;;;;;;5013843;28;20268;-71
2022/06/12 08:41:02;;;;;;;2.17;1.97;;;23.80;99.90;;;;;;5014018;28;20700;-71
2022/06/12 08:43:41;;;;;;;2.40;2.10;;;24.20;99.90;;;;;;5014312;28;20266;-72
2022/06/12 08:46:13;;;;;;;1.80;1.57;;;25.20;99.90;;;;;;5013917;28;20568;-72
2022/06/12 08:48:47;;;;;;;2.13;1.93;;;24.80;99.90;;;;;;5014042;28;20434;-73
2022/06/12 08:51:48;;;;;;;2.20;1.77;;;24.90;99.90;;;;;;5014344;28;20409;-71
2022/06/12 08:54:20;;;;;;;1.77;1.20;;;25.70;99.90;;;;;;5013729;28;20407;-71
2022/06/12 08:57:05;;;;;;;1.53;1.30;;;24.60;99.90;;;;;;5013662;28;20878;-71
2022/06/12 08:59:38;;;;;;;2.23;1.53;;;24.40;99.90;;;;;;5013822;28;20815;-72
2022/06/12 09:02:11;;;;;;;2.03;1.83;;;24.80;99.90;;;;;;5011975;28;20419;-71
2022/06/12 09:04:37;;;;;;;1.50;1.40;;;24.60;99.90;;;;;;5012254;28;20464;-71
2022/06/12 09:07:10;;;;;;;2.37;1.90;;;24.80;99.90;;;;;;5013461;28;20488;-70
2022/06/12 09:09:47;;;;;;;1.90;1.80;;;25.00;99.90;;;;;;5013300;28;20282;-70
2022/06/12 09:12:30;;;;;;;1.97;1.77;;;25.10;99.90;;;;;;5013069;28;20442;-70
2022/06/12 09:15:06;;;;;;;2.50;1.90;;;25.40;99.90;;;;;;5013120;28;20733;-72
2022/06/12 09:17:39;;;;;;;2.63;2.10;;;25.10;99.90;;;;;;5013132;28;20549;-72
2022/06/12 09:20:31;;;;;;;2.33;2.00;;;25.60;99.90;;;;;;5013142;28;21151;-70
2022/06/12 09:23:05;;;;;;;2.70;1.80;;;25.40;99.90;;;;;;5005933;28;20416;-70
2022/06/12 09:25:53;;;;;;;1.77;1.67;;;25.60;99.90;;;;;;5012880;28;20406;-71
2022/06/12 09:28:35;;;;;;;3.97;2.43;;;25.30;99.90;;;;;;5012497;28;20532;-71
2022/06/12 09:31:32;;;;;;;2.50;1.73;;;24.50;99.90;;;;;;5012714;28;20778;-71
2022/06/12 09:34:11;;;;;;;2.40;2.20;;;24.70;99.90;;;;;;5012948;28;20413;-71
2022/06/12 09:38:18;;;;;;;4.13;1.90;;;24.60;99.90;;;;;;5012746;28;20408;-71
2022/06/12 09:40:24;;;;;;;2.20;1.67;;;25.50;99.90;;;;;;5012530;28;20489;-70
2022/06/12 09:43:05;;;;;;;4.73;1.73;;;25.60;99.90;;;;;;5012594;28;20415;-71
2022/06/12 09:45:52;;;;;;;3.13;2.33;;;24.90;99.90;;;;;;5012234;28;20408;-71
2022/06/12 09:48:49;;;;;;;2.23;2.03;;;25.20;99.90;;;;;;5012655;28;20458;-71
2022/06/12 09:51:39;;;;;;;3.67;2.80;;;25.80;99.90;;;;;;5012596;28;20423;-73
2022/06/12 09:54:26;;;;;;;3.80;1.87;;;25.20;99.90;;;;;;5012714;28;20402;-72
2022/06/12 09:56:59;;;;;;;2.00;1.53;;;26.10;99.90;;;;;;5012517;28;20403;-71
2022/06/12 09:59:34;;;;;;;2.33;1.80;;;26.50;99.90;;;;;;5012067;28;20461;-73
2022/06/12 10:02:11;;;;;;;2.63;2.43;;;26.20;99.90;;;;;;5011684;28;20410;-73
2022/06/12 10:04:44;;;;;;;2.80;1.70;;;25.80;99.90;;;;;;5011531;28;20419;-73
2022/06/12 10:07:18;;;;;;;13.10;6.30;;;25.50;99.90;;;;;;5012725;28;20600;-73
2022/06/12 10:10:05;;;;;;;3.70;2.30;;;26.00;99.90;;;;;;5012661;28;20543;-71
2022/06/12 10:12:40;;;;;;;2.67;1.60;;;25.60;99.90;;;;;;5012384;28;20415;-71
2022/06/12 10:15:19;;;;;;;12.30;4.17;;;24.90;99.90;;;;;;5012551;28;20407;-72
2022/06/12 10:17:51;;;;;;;2.00;1.57;;;24.70;99.90;;;;;;5012850;28;20852;-72
2022/06/12 10:20:23;;;;;;;4.17;1.70;;;24.90;99.90;;;;;;5010562;28;20454;-72
2022/06/12 10:22:52;;;;;;;2.83;2.40;;;25.10;99.90;;;;;;5011262;28;20481;-74
2022/06/12 10:25:27;;;;;;;3.80;2.40;;;25.30;99.90;;;;;;5012170;28;20407;-73
2022/06/12 10:27:59;;;;;;;2.27;2.07;;;25.10;99.90;;;;;;5011872;28;20470;-73
2022/06/12 10:30:34;;;;;;;5.33;1.80;;;25.50;99.90;;;;;;5012516;28;20513;-73
2022/06/12 10:33:17;;;;;;;2.53;2.03;;;25.20;99.90;;;;;;5011462;28;20498;-73
2022/06/12 10:35:58;;;;;;;2.60;2.40;;;25.20;99.90;;;;;;5012365;28;20418;-73
2022/06/12 10:38:27;;;;;;;2.53;1.50;;;25.60;99.90;;;;;;5012205;28;20800;-72
2022/06/12 10:40:59;;;;;;;1.77;1.50;;;26.10;99.90;;;;;;5012246;28;20458;-71
2022/06/12 10:43:38;;;;;;;2.00;1.80;;;25.50;99.90;;;;;;5011954;28;20766;-71
2022/06/12 10:46:25;;;;;;;1.90;1.30;;;25.60;99.90;;;;;;5011957;28;20404;-71
2022/06/12 10:49:01;;;;;;;2.43;1.50;;;25.40;99.80;;;;;;5011310;28;20518;-71
2022/06/12 10:51:35;;;;;;;1.20;1.10;;;25.30;99.00;;;;;;5011972;28;20413;-72
2022/06/12 10:54:10;;;;;;;2.50;1.30;;;25.70;98.30;;;;;;5011042;28;20509;-71
2022/06/12 10:56:53;;;;;;;2.60;1.50;;;25.30;98.30;;;;;;5011397;28;20488;-70
2022/06/12 10:59:31;;;;;;;3.13;1.40;;;25.40;99.10;;;;;;5011549;28;20545;-71
2022/06/12 11:02:25;;;;;;;1.90;1.37;;;25.40;99.70;;;;;;5014134;28;20417;-73
2022/06/12 11:05:09;;;;;;;2.20;1.47;;;25.50;97.60;;;;;;5013748;28;20413;-73
2022/06/12 11:07:53;;;;;;;1.53;1.30;;;25.70;97.80;;;;;;5015093;28;20407;-73
2022/06/12 11:10:38;;;;;;;2.73;1.50;;;26.40;97.50;;;;;;5012793;28;20417;-71
2022/06/12 11:13:10;;;;;;;2.03;1.43;;;26.00;96.60;;;;;;5018582;28;20429;-71
2022/06/12 11:16:00;;;;;;;1.07;1.00;;;25.70;97.20;;;;;;5019582;28;20495;-72
2022/06/12 11:18:34;;;;;;;4.70;2.00;;;25.70;96.20;;;;;;5021365;28;20434;-72
2022/06/12 11:20:59;;;;;;;1.37;1.27;;;25.20;97.70;;;;;;5016884;28;20501;-71
2022/06/12 11:23:31;;;;;;;1.83;1.37;;;26.00;97.30;;;;;;5016904;28;20401;-71
2022/06/12 11:26:02;;;;;;;2.20;2.00;;;26.40;95.90;;;;;;5017459;28;20304;-72
2022/06/12 11:31:40;;;;;;;6.13;1.43;;;26.60;96.20;;;;;;5014176;28;20523;-70
2022/06/12 11:34:06;;;;;;;1.17;1.07;;;26.50;96.00;;;;;;5020284;28;20414;-69
2022/06/12 11:36:48;;;;;;;2.43;1.47;;;26.80;96.40;;;;;;5016750;28;20406;-69
2022/06/12 11:39:28;;;;;;;1.53;1.40;;;27.10;95.20;;;;;;5019109;28;20202;-68
2022/06/12 11:42:28;;;;;;;2.27;1.30;;;27.40;93.40;;;;;;5017939;28;20444;-67
2022/06/12 11:45:07;;;;;;;2.13;1.50;;;27.40;92.60;;;;;;4997716;28;20420;-68
2022/06/12 11:48:00;;;;;;;2.90;1.63;;;26.80;92.80;;;;;;5015582;28;20441;-68
2022/06/12 11:50:29;;;;;;;4.00;1.83;;;26.70;93.10;;;;;;4995936;28;20794;-68
2022/06/12 11:53:19;;;;;;;1.70;1.60;;;26.70;93.40;;;;;;4995628;28;20410;-68
2022/06/12 11:56:03;;;;;;;4.20;1.67;;;26.80;92.90;;;;;;5002797;28;20405;-68
2022/06/12 11:58:59;;;;;;;1.83;1.57;;;26.70;93.10;;;;;;5015413;28;20413;-68
2022/06/12 12:01:35;;;;;;;2.77;1.83;;;26.70;93.00;;;;;;5015880;28;20948;-69
2022/06/12 12:04:36;;;;;;;1.50;1.40;;;26.20;93.50;;;;;;5016310;28;20406;-71
2022/06/12 12:07:20;;;;;;;5.00;1.30;;;26.60;93.30;;;;;;5002215;28;20410;-69
2022/06/12 12:10:19;;;;;;;2.37;1.50;;;26.90;93.50;;;;;;5014997;28;20778;-69
2022/06/12 12:12:50;;;;;;;3.07;1.73;;;27.00;92.40;;;;;;5014770;28;20480;-69
2022/06/12 12:15:27;;;;;;;1.53;1.30;;;26.40;92.20;;;;;;5014956;28;20901;-69
2022/06/12 12:17:56;;;;;;;4.13;1.87;;;25.60;93.60;;;;;;5015125;28;20772;-69
2022/06/12 12:20:43;;;;;;;4.17;2.67;;;25.80;93.60;;;;;;5014797;28;20456;-69
2022/06/12 12:23:13;;;;;;;2.30;1.90;;;26.10;93.30;;;;;;5025792;28;20413;-69
2022/06/12 12:25:58;;;;;;;2.30;1.57;;;25.70;94.10;;;;;;5034364;28;20484;-69
2022/06/12 12:28:35;;;;;;;3.13;2.07;;;25.80;93.80;;;;;;5033562;28;20423;-74
2022/06/12 12:31:05;;;;;;;2.60;2.30;;;25.90;94.20;;;;;;4995038;28;20425;-69
2022/06/12 12:33:33;;;;;;;4.37;2.03;;;26.60;92.80;;;;;;4994996;28;20943;-69
2022/06/12 12:41:43;;;;;;;2.30;2.00;;;26.80;91.50;;;;;;4994794;28;20471;-69
2022/06/12 12:44:10;;;;;;;2.00;1.63;;;25.90;91.50;;;;;;4994801;28;20483;-70
2022/06/12 12:46:51;;;;;;;2.63;1.70;;;26.00;92.00;;;;;;4994560;28;20517;-69
2022/06/12 12:49:32;;;;;;;5.27;1.80;;;26.00;92.50;;;;;;5019737;28;20490;-69
2022/06/12 12:52:17;;;;;;;1.47;1.37;;;25.80;92.50;;;;;;5034110;28;20555;-69
2022/06/12 12:54:57;;;;;;;3.03;1.70;;;25.60;92.30;;;;;;5033734;28;20545;-69
2022/06/12 12:57:39;;;;;;;3.27;1.83;;;26.40;92.60;;;;;;4994717;28;20832;-69
2022/06/12 13:00:15;;;;;;;3.80;1.80;;;26.30;91.60;;;;;;4994486;28;21054;-69
2022/06/12 13:02:56;;;;;;;1.90;1.70;;;26.50;91.30;;;;;;4994608;28;20401;-69
2022/06/12 13:05:54;;;;;;;2.57;1.50;;;26.40;90.30;;;;;;4995373;28;20476;-69
2022/06/12 13:08:50;;;;;;;2.17;1.80;;;26.20;89.10;;;;;;4990261;28;20512;-68
2022/06/12 13:11:32;;;;;;;1.80;1.70;;;26.50;85.90;;;;;;4992987;28;20421;-69
2022/06/12 13:14:18;;;;;;;2.43;1.70;;;26.40;86.20;;;;;;5014582;28;20403;-69
2022/06/12 13:16:53;;;;;;;4.73;1.63;;;26.30;87.30;;;;;;5015353;28;20934;-69
2022/06/12 13:19:44;;;;;;;2.63;1.90;;;26.20;86.20;;;;;;5016207;28;20547;-69
2022/06/12 13:22:36;;;;;;;1.80;1.70;;;26.00;86.60;;;;;;5013795;28;20505;-68
2022/06/12 13:25:15;;;;;;;2.70;1.30;;;25.70;88.20;;;;;;5013538;28;20496;-69
2022/06/12 13:27:58;;;;;;;2.60;1.77;;;25.90;89.60;;;;;;5013594;28;20407;-69
2022/06/12 13:30:29;;;;;;;1.87;1.77;;;25.80;88.90;;;;;;5013467;28;20505;-69
2022/06/12 13:33:25;;;;;;;2.20;2.00;;;26.00;87.40;;;;;;5013102;28;20409;-69
2022/06/12 13:35:57;;;;;;;2.10;2.00;;;26.20;85.90;;;;;;5013483;28;20438;-69
2022/06/12 13:38:33;;;;;;;2.43;1.50;;;26.20;87.10;;;;;;5013380;28;20399;-69
2022/06/12 13:41:23;;;;;;;2.60;1.67;;;26.40;85.90;;;;;;5013385;28;20557;-69
2022/06/12 13:43:49;;;;;;;2.03;1.47;;;26.50;85.30;;;;;;4995651;28;20408;-69
2022/06/12 13:46:29;;;;;;;1.97;1.87;;;26.40;84.00;;;;;;5013347;28;20441;-69